createdAt,value
2022-10-05T00:02:33.216Z,76.22
2022-10-05T00:05:02.453Z,76.71
2022-10-05T00:07:32.112Z,76.33
2022-10-05T00:10:10.930Z,76.14
2022-10-05T00:12:40.295Z,76.36
2022-10-05T00:15:13.809Z,76.89
2022-10-05T00:17:43.761Z,76.66
2022-10-05T00:20:23.226Z,76.77
2022-10-05T00:22:57.635Z,76.77
2022-10-05T00:25:28.385Z,76.77
2022-10-05T00:27:59.797Z,76.32
2022-10-05T00:30:35.200Z,76.75
2022-10-05T00:33:04.635Z,77.00
2022-10-05T00:35:37.490Z,77.08
2022-10-05T00:38:06.999Z,77.45
2022-10-05T00:40:56.705Z,76.89
2022-10-05T00:43:42.110Z,77.25
2022-10-05T00:46:17.542Z,77.32
2022-10-05T00:48:57.598Z,76.76
2022-10-05T00:51:29.825Z,77.11
2022-10-05T00:54:18.501Z,77.45
2022-10-05T00:57:09.124Z,77.25
2022-10-05T00:59:50.595Z,77.34
2022-10-05T01:02:35.853Z,77.41
2022-10-05T01:05:14.021Z,76.84
2022-10-05T01:07:51.967Z,77.23
2022-10-05T01:10:29.511Z,76.98
2022-10-05T01:13:08.501Z,77.04
2022-10-05T01:15:44.067Z,76.89
2022-10-05T01:18:17.891Z,77.39
2022-10-05T01:20:57.350Z,77.35
2022-10-05T01:23:59.071Z,77.05
2022-10-05T01:26:45.044Z,77.59
2022-10-05T01:29:23.669Z,77.23
2022-10-05T01:32:01.432Z,77.37
2022-10-05T01:34:39.242Z,77.59
2022-10-05T01:37:16.781Z,77.68
2022-10-05T01:39:55.940Z,77.64
2022-10-05T01:42:37.101Z,77.40
2022-10-05T01:45:15.869Z,77.83
2022-10-05T01:47:48.898Z,77.54
2022-10-05T01:50:31.194Z,77.84
2022-10-05T01:53:09.079Z,77.60
2022-10-05T01:55:45.932Z,77.77
2022-10-05T01:58:26.236Z,78.13
2022-10-05T02:01:02.064Z,78.01
2022-10-05T02:03:36.926Z,77.83
2022-10-05T02:06:13.589Z,77.72
2022-10-05T02:08:48.063Z,77.89
2022-10-05T02:11:19.633Z,78.07
2022-10-05T02:13:57.104Z,77.84
2022-10-05T02:16:34.520Z,78.00
2022-10-05T02:19:10.436Z,77.88
2022-10-05T02:21:42.119Z,78.06
2022-10-05T02:24:18.728Z,78.44
2022-10-05T02:26:49.880Z,78.18
2022-10-05T02:29:24.306Z,78.46
2022-10-05T02:31:59.061Z,78.36
2022-10-05T02:34:30.283Z,77.98
2022-10-05T02:37:29.955Z,78.39
2022-10-05T02:40:14.754Z,78.20
2022-10-05T02:42:53.221Z,78.57
2022-10-05T02:45:33.413Z,78.58
2022-10-05T02:48:13.959Z,78.49
2022-10-05T02:50:52.665Z,79.02
2022-10-05T02:53:28.645Z,78.70
2022-10-05T02:56:12.217Z,78.90
2022-10-05T02:58:49.460Z,78.77
2022-10-05T03:01:26.063Z,78.74
2022-10-05T03:04:08.887Z,78.90
2022-10-05T03:06:45.750Z,79.18
2022-10-05T03:09:18.827Z,79.23
2022-10-05T03:12:00.140Z,79.10
2022-10-05T03:14:38.969Z,79.32
2022-10-05T03:17:15.266Z,79.40
2022-10-05T03:20:13.162Z,79.51
2022-10-05T03:22:50.800Z,79.38
2022-10-05T03:25:46.182Z,79.10
2022-10-05T03:28:25.482Z,79.79
2022-10-05T03:31:01.839Z,79.91
2022-10-05T03:33:40.479Z,80.28
2022-10-05T03:36:19.358Z,80.28
2022-10-05T03:38:56.660Z,80.49
2022-10-05T03:41:32.782Z,80.05
2022-10-05T03:44:30.510Z,80.04
2022-10-05T03:47:20.297Z,80.26
2022-10-05T03:50:03.129Z,80.14
2022-10-05T03:52:40.910Z,80.25
2022-10-05T03:55:21.199Z,79.90
2022-10-05T03:57:52.270Z,80.47
2022-10-05T04:00:24.327Z,80.52
2022-10-05T04:03:05.090Z,80.65
2022-10-05T04:05:39.551Z,80.29
2022-10-05T04:08:19.752Z,80.42
2022-10-05T04:10:53.204Z,80.52
2022-10-05T04:13:29.701Z,80.41
2022-10-05T04:16:05.209Z,80.47
2022-10-05T04:18:37.986Z,80.74
2022-10-05T04:21:12.874Z,80.64
2022-10-05T04:23:53.204Z,80.82
2022-10-05T04:26:36.965Z,81.00
2022-10-05T04:29:15.250Z,81.14
2022-10-05T04:31:56.795Z,80.90
2022-10-05T04:34:47.185Z,80.91
2022-10-05T04:37:22.376Z,80.86
2022-10-05T04:40:04.388Z,81.13
2022-10-05T04:42:40.221Z,80.85
2022-10-05T04:45:15.710Z,81.14
2022-10-05T04:48:11.092Z,81.44
2022-10-05T04:50:58.545Z,81.56
2022-10-05T04:53:33.051Z,81.47
2022-10-05T04:56:10.846Z,81.33
2022-10-05T04:59:18.665Z,81.60
2022-10-05T05:02:03.349Z,81.65
2022-10-05T05:05:10.276Z,81.87
2022-10-05T05:07:49.168Z,81.58
2022-10-05T05:10:44.722Z,81.76
2022-10-05T05:13:33.168Z,81.78
2022-10-05T05:16:09.895Z,82.20
2022-10-05T05:18:59.406Z,81.80
2022-10-05T05:21:39.113Z,81.76
2022-10-05T05:24:16.470Z,81.91
2022-10-05T05:27:05.089Z,81.96
2022-10-05T05:29:49.625Z,82.08
2022-10-05T05:32:28.323Z,82.26
2022-10-05T05:35:13.327Z,81.72
2022-10-05T05:37:53.368Z,81.90
2022-10-05T05:40:28.872Z,81.47
2022-10-05T05:43:02.210Z,81.65
2022-10-05T05:45:41.724Z,82.03
2022-10-05T05:48:20.262Z,82.54
2022-10-05T05:50:57.352Z,82.17
2022-10-05T05:53:32.719Z,82.32
2022-10-05T05:56:09.580Z,82.47
2022-10-05T05:58:46.850Z,82.16
2022-10-05T06:01:33.167Z,82.35
2022-10-05T06:04:13.875Z,82.46
2022-10-05T06:06:48.327Z,82.39
2022-10-05T06:09:25.866Z,82.11
2022-10-05T06:12:13.775Z,82.29
2022-10-05T06:14:48.699Z,82.22
2022-10-05T06:17:23.796Z,82.40
2022-10-05T06:20:02.465Z,81.86
2022-10-05T06:22:38.397Z,82.12
2022-10-05T06:25:24.397Z,82.50
2022-10-05T06:28:10.225Z,82.13
2022-10-05T06:31:00.190Z,81.96
2022-10-05T06:33:48.762Z,82.45
2022-10-05T06:36:36.188Z,81.77
2022-10-05T06:39:29.063Z,82.09
2022-10-05T06:42:15.538Z,82.66
2022-10-05T06:45:26.420Z,82.03
2022-10-05T06:48:21.222Z,82.08
2022-10-05T06:51:27.482Z,82.53
2022-10-05T06:54:49.797Z,82.17
2022-10-05T06:57:47.552Z,82.24
2022-10-05T07:00:20.741Z,82.12
2022-10-05T07:02:59.854Z,81.79
2022-10-05T07:05:56.696Z,81.83
2022-10-05T07:08:40.721Z,82.01
2022-10-05T07:11:24.072Z,82.56
2022-10-05T07:14:10.490Z,82.08
2022-10-05T07:16:48.930Z,82.04
2022-10-05T07:19:32.385Z,81.75
2022-10-05T07:22:24.840Z,81.45
2022-10-05T07:25:02.595Z,81.53
2022-10-05T07:27:36.781Z,81.69
2022-10-05T07:30:10.980Z,81.74
2022-10-05T07:32:52.794Z,81.49
2022-10-05T07:35:48.945Z,81.54
2022-10-05T07:38:26.303Z,81.21
2022-10-05T07:41:05.782Z,81.64
2022-10-05T07:44:13.227Z,81.56
2022-10-05T07:46:50.241Z,81.13
2022-10-05T07:49:27.698Z,81.21
2022-10-05T07:52:01.703Z,81.31
2022-10-05T07:54:41.645Z,81.02
2022-10-05T07:57:23.896Z,81.32
2022-10-05T08:00:01.823Z,80.95
2022-10-05T08:02:46.577Z,81.01
2022-10-05T08:05:23.497Z,81.28
2022-10-05T08:07:58.038Z,81.30
2022-10-05T08:10:35.475Z,80.91
2022-10-05T08:13:15.763Z,81.25
2022-10-05T08:15:48.807Z,81.12
2022-10-05T08:18:38.597Z,81.29
2022-10-05T08:21:12.069Z,80.75
2022-10-05T08:23:48.461Z,81.09
2022-10-05T08:26:26.720Z,80.91
2022-10-05T08:29:13.773Z,80.83
2022-10-05T08:31:48.732Z,80.76
2022-10-05T08:34:27.369Z,80.49
2022-10-05T08:37:03.473Z,80.60
2022-10-05T08:39:38.565Z,80.98
2022-10-05T08:42:40.927Z,80.71
2022-10-05T08:45:52.222Z,80.61
2022-10-05T08:49:06.251Z,80.62
2022-10-05T08:51:58.327Z,80.31
2022-10-05T08:54:43.156Z,80.44
2022-10-05T08:57:53.484Z,80.15
2022-10-05T09:00:24.493Z,80.42
2022-10-05T09:03:29.860Z,80.45
2022-10-05T09:06:23.026Z,80.47
2022-10-05T09:09:19.515Z,80.12
2022-10-05T09:12:07.663Z,79.78
2022-10-05T09:15:13.696Z,79.86
2022-10-05T09:18:08.328Z,79.49
2022-10-05T09:20:47.915Z,79.30
2022-10-05T09:23:38.235Z,79.39
2022-10-05T09:26:30.081Z,79.48
2022-10-05T09:29:38.950Z,79.12
2022-10-05T09:32:36.803Z,79.07
2022-10-05T09:35:30.453Z,79.21
2022-10-05T09:38:16.760Z,78.99
2022-10-05T09:41:33.033Z,78.96
2022-10-05T09:44:36.350Z,78.87
2022-10-05T09:47:35.317Z,78.76
2022-10-05T09:50:40.923Z,78.64
2022-10-05T09:53:48.806Z,78.83
2022-10-05T09:56:36.039Z,78.69
2022-10-05T09:59:52.850Z,78.51
2022-10-05T10:02:38.852Z,78.24
2022-10-05T10:05:32.139Z,77.96
2022-10-05T10:08:20.301Z,77.96
2022-10-05T10:11:18.423Z,78.03
2022-10-05T10:14:21.405Z,77.67
2022-10-05T10:17:16.880Z,77.60
2022-10-05T10:20:19.472Z,77.46
2022-10-05T10:23:27.143Z,77.18
2022-10-05T10:26:16.243Z,77.06
2022-10-05T10:29:16.085Z,77.15
2022-10-05T10:31:59.194Z,77.00
2022-10-05T10:34:59.562Z,76.95
2022-10-05T10:37:58.550Z,76.66
2022-10-05T10:40:40.137Z,76.57
2022-10-05T10:43:45.629Z,76.11
2022-10-05T10:46:30.665Z,75.79
2022-10-05T10:49:16.266Z,75.50
2022-10-05T10:52:06.731Z,75.07
2022-10-05T10:54:54.871Z,75.26
2022-10-05T10:57:35.119Z,75.34
2022-10-05T11:00:30.044Z,74.69
2022-10-05T11:03:29.404Z,73.96
2022-10-05T11:06:26.368Z,73.83
2022-10-05T11:09:40.939Z,73.49
2022-10-05T11:12:46.195Z,73.14
2022-10-05T11:15:56.665Z,73.01
2022-10-05T11:18:40.223Z,72.91
2022-10-05T11:21:30.332Z,73.13
2022-10-05T11:24:32.718Z,72.91
2022-10-05T11:27:43.786Z,72.82
2022-10-05T11:30:55.976Z,72.64
2022-10-05T11:34:01.730Z,72.82
2022-10-05T11:37:04.174Z,72.75
2022-10-05T11:39:44.981Z,72.95
2022-10-05T11:42:57.710Z,72.90
2022-10-05T11:45:40.063Z,72.74
2022-10-05T11:48:22.566Z,72.66
2022-10-05T11:51:18.843Z,72.70
2022-10-05T11:53:57.585Z,72.87
2022-10-05T11:56:34.885Z,72.88
2022-10-05T11:59:16.380Z,72.82
2022-10-05T12:01:53.903Z,72.78
2022-10-05T12:04:33.870Z,72.65
2022-10-05T12:07:09.969Z,72.51
2022-10-05T12:10:17.450Z,72.35
2022-10-05T12:12:59.550Z,72.07
2022-10-05T12:15:38.475Z,72.04
2022-10-05T12:18:14.884Z,71.94
2022-10-05T12:20:51.103Z,71.87
2022-10-05T12:23:30.094Z,71.77
2022-10-05T12:26:05.108Z,71.94
2022-10-05T12:28:39.516Z,71.83
2022-10-05T12:31:20.383Z,71.70
2022-10-05T12:33:58.463Z,71.42
2022-10-05T12:36:59.713Z,71.69
2022-10-05T12:39:35.214Z,71.48
2022-10-05T12:42:15.535Z,71.44
2022-10-05T12:45:08.043Z,71.36
2022-10-05T12:47:53.790Z,71.63
2022-10-05T12:50:29.191Z,71.05
2022-10-05T12:53:16.305Z,70.73
2022-10-05T12:55:53.353Z,70.55
2022-10-05T12:58:35.152Z,70.36
2022-10-05T13:01:10.350Z,70.54
2022-10-05T13:03:47.478Z,70.35
2022-10-05T13:06:24.591Z,70.17
2022-10-05T13:09:02.521Z,70.31
2022-10-05T13:11:43.916Z,70.24
2022-10-05T13:14:24.791Z,69.62
2022-10-05T13:17:02.627Z,69.79
2022-10-05T13:19:40.410Z,69.74
2022-10-05T13:22:36.898Z,69.14
2022-10-05T13:25:22.959Z,68.89
2022-10-05T13:28:10.439Z,69.07
2022-10-05T13:30:42.163Z,69.32
2022-10-05T13:33:21.085Z,69.04
2022-10-05T13:36:01.390Z,69.20
2022-10-05T13:38:43.745Z,69.15
2022-10-05T13:41:24.513Z,68.94
2022-10-05T13:44:05.126Z,68.88
2022-10-05T13:46:39.742Z,69.09
2022-10-05T13:49:22.017Z,69.06
2022-10-05T13:52:01.596Z,69.01
2022-10-05T13:54:39.283Z,69.02
2022-10-05T13:57:21.462Z,69.15
2022-10-05T13:59:56.677Z,68.98
2022-10-05T14:02:31.063Z,69.08
2022-10-05T14:05:02.663Z,68.98
2022-10-05T14:07:39.562Z,68.88
2022-10-05T14:10:14.502Z,68.95
2022-10-05T14:12:45.818Z,68.97
2022-10-05T14:15:29.939Z,68.97
2022-10-05T14:17:59.443Z,69.18
2022-10-05T14:20:31.455Z,69.31
2022-10-05T14:23:04.692Z,69.44
2022-10-05T14:25:53.679Z,69.32
2022-10-05T14:28:29.700Z,69.30
2022-10-05T14:31:01.485Z,69.63
2022-10-05T14:33:32.264Z,69.66
2022-10-05T14:36:02.654Z,69.71
2022-10-05T14:38:51.581Z,69.69
2022-10-05T14:41:24.950Z,69.82
2022-10-05T14:44:02.054Z,69.83
2022-10-05T14:46:34.175Z,69.94
2022-10-05T14:49:21.566Z,70.09
2022-10-05T14:51:51.588Z,70.16
2022-10-05T14:54:41.953Z,70.45
2022-10-05T14:57:25.327Z,70.53
2022-10-05T15:00:05.125Z,70.81
2022-10-05T15:03:03.418Z,70.74
2022-10-05T15:05:39.177Z,70.77
2022-10-05T15:08:31.285Z,71.00
2022-10-05T15:11:07.577Z,71.04
2022-10-05T15:13:42.092Z,71.03
2022-10-05T15:16:20.233Z,71.03
2022-10-05T15:18:58.203Z,71.13
2022-10-05T15:21:50.642Z,71.48
2022-10-05T15:24:24.278Z,71.58
2022-10-05T15:26:58.002Z,71.85
2022-10-05T15:30:00.967Z,71.70
2022-10-05T15:32:41.707Z,71.80
2022-10-05T15:35:38.159Z,71.83
2022-10-05T15:38:21.256Z,72.13
2022-10-05T15:40:59.675Z,72.44
2022-10-05T15:43:46.581Z,72.65
2022-10-05T15:46:23.380Z,72.77
2022-10-05T15:49:08.490Z,72.97
2022-10-05T15:51:50.904Z,72.92
2022-10-05T15:54:42.915Z,73.17
2022-10-05T15:57:26.508Z,73.07
2022-10-05T16:00:04.337Z,73.23
2022-10-05T16:02:43.223Z,73.58
2022-10-05T16:05:59.239Z,73.46
2022-10-05T16:08:55.243Z,73.36
2022-10-05T16:11:50.197Z,73.69
2022-10-05T16:14:40.142Z,73.64
2022-10-05T16:17:29.158Z,73.74
2022-10-05T16:20:15.404Z,73.71
2022-10-05T16:22:52.118Z,73.66
2022-10-05T16:25:25.086Z,73.92
2022-10-05T16:28:12.834Z,73.61
2022-10-05T16:30:54.330Z,73.93
2022-10-05T16:33:32.431Z,73.79
2022-10-05T16:36:31.879Z,74.27
2022-10-05T16:39:08.181Z,74.48
2022-10-05T16:41:44.648Z,74.38
2022-10-05T16:44:24.072Z,74.46
2022-10-05T16:46:59.567Z,74.60
2022-10-05T16:49:40.078Z,74.56
2022-10-05T16:52:15.241Z,74.75
2022-10-05T16:54:48.816Z,74.79
2022-10-05T16:57:24.920Z,74.76
2022-10-05T17:00:12.090Z,74.85
2022-10-05T17:02:51.647Z,74.85
2022-10-05T17:05:44.260Z,74.96
2022-10-05T17:08:31.800Z,74.89
2022-10-05T17:11:16.684Z,74.88
2022-10-05T17:14:10.093Z,75.11
2022-10-05T17:16:54.038Z,75.14
2022-10-05T17:19:43.161Z,75.45
2022-10-05T17:22:22.706Z,75.62
2022-10-05T17:25:05.727Z,75.72
2022-10-05T17:27:51.063Z,75.51
2022-10-05T17:30:44.589Z,75.75
2022-10-05T17:33:29.079Z,75.86
2022-10-05T17:36:18.541Z,75.71
2022-10-05T17:38:52.378Z,75.87
2022-10-05T17:41:24.987Z,76.18
2022-10-05T17:44:28.193Z,75.99
2022-10-05T17:46:59.458Z,76.14
2022-10-05T17:50:09.166Z,76.43
2022-10-05T17:52:59.996Z,76.17
2022-10-05T17:56:03.347Z,76.15
2022-10-05T17:59:03.200Z,76.19
2022-10-05T18:01:35.840Z,76.51
2022-10-05T18:04:42.252Z,76.50
2022-10-05T18:07:23.848Z,76.56
2022-10-05T18:10:17.562Z,76.56
2022-10-05T18:12:50.768Z,76.65
2022-10-05T18:15:48.647Z,76.76
2022-10-05T18:18:55.904Z,77.12
2022-10-05T18:21:38.005Z,77.17
2022-10-05T18:24:53.112Z,77.16
2022-10-05T18:27:55.315Z,77.24
2022-10-05T18:30:27.635Z,77.40
2022-10-05T18:33:27.204Z,77.13
2022-10-05T18:36:14.318Z,77.00
2022-10-05T18:38:51.281Z,77.21
2022-10-05T18:41:31.658Z,77.23
2022-10-05T18:44:19.737Z,77.42
2022-10-05T18:46:56.555Z,77.52
2022-10-05T18:49:38.594Z,77.42
2022-10-05T18:52:17.527Z,77.63
2022-10-05T18:54:58.890Z,77.63
2022-10-05T18:57:48.819Z,77.67
2022-10-05T19:00:20.803Z,77.64
2022-10-05T19:02:57.125Z,77.46
2022-10-05T19:05:47.998Z,77.56
2022-10-05T19:08:29.885Z,77.34
2022-10-05T19:11:05.931Z,77.62
2022-10-05T19:13:44.766Z,77.44
2022-10-05T19:16:31.020Z,77.68
2022-10-05T19:19:29.432Z,77.30
2022-10-05T19:22:07.261Z,77.18
2022-10-05T19:24:48.158Z,77.22
2022-10-05T19:27:28.203Z,77.51
2022-10-05T19:30:14.665Z,77.68
2022-10-05T19:33:06.069Z,77.41
2022-10-05T19:35:48.348Z,77.42
2022-10-05T19:38:27.918Z,77.35
2022-10-05T19:41:04.311Z,77.25
2022-10-05T19:44:05.164Z,77.77
2022-10-05T19:46:48.898Z,77.76
2022-10-05T19:49:39.085Z,77.53
2022-10-05T19:52:14.836Z,77.42
2022-10-05T19:54:44.338Z,77.21
2022-10-05T19:57:18.185Z,77.55
2022-10-05T19:59:48.995Z,77.63
2022-10-05T20:02:19.484Z,77.90
2022-10-05T20:04:49.803Z,78.09
2022-10-05T20:07:22.944Z,77.85
2022-10-05T20:09:54.982Z,77.92
2022-10-05T20:12:44.314Z,78.36
2022-10-05T20:15:37.682Z,78.02
2022-10-05T20:18:58.001Z,78.59
2022-10-05T20:21:47.807Z,77.99
2022-10-05T20:24:20.699Z,78.14
2022-10-05T20:27:05.255Z,78.55
2022-10-05T20:29:36.972Z,77.98
2022-10-05T20:32:09.850Z,78.30
2022-10-05T20:34:41.353Z,78.45
2022-10-05T20:37:11.511Z,78.57
2022-10-05T20:39:42.443Z,78.65
2022-10-05T20:42:12.181Z,78.34
2022-10-05T20:44:41.546Z,78.45
2022-10-05T20:47:11.592Z,78.80
2022-10-05T20:49:42.151Z,79.00
2022-10-05T20:52:13.269Z,79.09
2022-10-05T20:57:20.883Z,78.88
2022-10-05T20:59:50.019Z,79.34
2022-10-05T21:02:20.226Z,79.08
2022-10-05T21:04:49.950Z,79.19
2022-10-05T21:07:21.750Z,78.93
2022-10-05T21:09:58.165Z,79.24
2022-10-05T21:12:27.891Z,79.32
2022-10-05T21:14:57.190Z,79.45
2022-10-05T21:17:26.394Z,79.55
2022-10-05T21:19:55.702Z,79.65
2022-10-05T21:22:25.858Z,80.05
2022-10-05T21:24:56.142Z,79.77
2022-10-05T21:27:25.552Z,79.78
2022-10-05T21:29:54.692Z,80.16
2022-10-05T21:32:23.821Z,80.46
2022-10-05T21:34:53.246Z,80.68
2022-10-05T21:37:22.450Z,80.67
2022-10-05T21:39:51.621Z,80.65
2022-10-05T21:42:23.603Z,80.73
2022-10-05T21:44:52.918Z,81.02
2022-10-05T21:47:22.335Z,81.07
2022-10-05T21:49:51.551Z,80.85
2022-10-05T21:52:21.055Z,80.92
2022-10-05T21:55:15.809Z,81.06
2022-10-05T21:57:48.249Z,80.82
2022-10-05T22:00:17.652Z,80.99
2022-10-05T22:02:48.509Z,81.30
2022-10-05T22:05:17.866Z,81.25
2022-10-05T22:07:47.280Z,81.37
2022-10-05T22:10:16.859Z,81.62
2022-10-05T22:12:47.523Z,81.54
2022-10-05T22:15:17.452Z,81.19
2022-10-05T22:17:46.697Z,81.38
2022-10-05T22:20:15.918Z,81.67
2022-10-05T22:22:45.239Z,81.38
2022-10-05T22:25:14.443Z,81.95
2022-10-05T22:27:43.827Z,82.08
2022-10-05T22:30:15.748Z,81.75
2022-10-05T22:32:45.335Z,81.89
2022-10-05T22:35:14.750Z,82.34
2022-10-05T22:37:44.362Z,82.31
2022-10-05T22:40:13.600Z,81.96
2022-10-05T22:42:43.284Z,82.21
2022-10-05T22:45:14.308Z,81.98
2022-10-05T22:47:43.654Z,82.15
2022-10-05T22:50:12.907Z,82.10
2022-10-05T22:52:42.675Z,82.15
2022-10-05T22:55:12.266Z,82.41
2022-10-05T22:57:42.148Z,81.87
2022-10-05T23:00:14.219Z,82.39
2022-10-05T23:02:45.251Z,82.24
2022-10-05T23:05:17.099Z,82.25
2022-10-05T23:07:47.975Z,82.20
2022-10-05T23:10:19.418Z,82.19
2022-10-05T23:13:00.363Z,82.37
2022-10-05T23:15:31.467Z,82.72
2022-10-05T23:18:00.826Z,82.39
2022-10-05T23:20:30.069Z,82.33
2022-10-05T23:23:01.363Z,82.45
2022-10-05T23:25:30.671Z,82.33
2022-10-05T23:27:59.821Z,82.68
2022-10-05T23:30:30.382Z,82.43
2022-10-05T23:32:59.799Z,82.81
2022-10-05T23:35:28.929Z,82.80
2022-10-05T23:37:58.082Z,82.77
2022-10-05T23:40:27.522Z,82.28
2022-10-05T23:42:56.645Z,82.76
2022-10-05T23:45:25.778Z,82.44
2022-10-05T23:47:56.551Z,82.76
2022-10-05T23:50:27.008Z,83.02
2022-10-05T23:52:56.347Z,82.93
2022-10-05T23:55:25.490Z,82.66
2022-10-05T23:57:54.606Z,82.74
